Time;durP1;ratioP1;P1;durP2;ratioP2;P2;SDS_P1;SDS_P2;PMS_P1;PMS_P2;Temp;Humidity;BMP_temperature;BMP_pressure;BME280_temperature;BME280_humidity;BME280_pressure;Samples;Min_cycle;Max_cycle;Signal;HPM_P1;HPM_P2
2023/08/17 00:00:36;;;;;;;7.47;3.08;;;;;;;;;;5035530;28;20049;-78
2023/08/17 00:03:03;;;;;;;5.93;2.72;;;;;;;;;;5035330;28;20124;-78
2023/08/17 00:05:29;;;;;;;7.25;3.10;;;;;;;;;;5049582;28;20053;-79
2023/08/17 00:07:55;;;;;;;6.78;2.80;;;;;;;;;;5035409;28;20123;-78
2023/08/17 00:10:21;;;;;;;7.28;2.78;;;;;;;;;;5052671;28;20503;-78
2023/08/17 00:12:48;;;;;;;6.57;2.80;;;;;;;;;;5052846;28;20045;-78
2023/08/17 00:15:14;;;;;;;7.70;2.83;;;;;;;;;;5035135;28;20049;-78
2023/08/17 00:17:40;;;;;;;7.40;3.13;;;;;;;;;;5034776;28;20559;-77
2023/08/17 00:20:06;;;;;;;5.80;2.85;;;;;;;;;;5052861;28;20060;-78
2023/08/17 00:22:32;;;;;;;6.22;2.78;;;;;;;;;;5017691;28;20106;-78
2023/08/17 00:24:58;;;;;;;6.13;2.72;;;;;;;;;;5053200;28;20417;-78
2023/08/17 00:27:25;;;;;;;7.28;3.15;;;;;;;;;;5053211;28;20405;-78
2023/08/17 00:29:51;;;;;;;6.18;2.70;;;;;;;;;;5052620;28;20408;-78
2023/08/17 00:32:17;;;;;;;6.60;2.90;;;;;;;;;;5034721;28;20397;-78
2023/08/17 00:34:43;;;;;;;6.72;2.90;;;;;;;;;;5035187;28;20045;-78
2023/08/17 00:37:09;;;;;;;6.90;2.55;;;;;;;;;;5052799;28;20060;-77
2023/08/17 00:39:35;;;;;;;6.93;2.90;;;;;;;;;;5051681;28;20037;-78
2023/08/17 00:42:01;;;;;;;6.15;2.78;;;;;;;;;;5050455;28;20056;-78
2023/08/17 00:44:27;;;;;;;6.43;2.58;;;;;;;;;;5053118;28;20045;-78
2023/08/17 00:46:53;;;;;;;8.88;3.25;;;;;;;;;;5034920;28;20055;-78
2023/08/17 00:49:19;;;;;;;6.30;2.90;;;;;;;;;;5053015;28;20037;-78
2023/08/17 00:51:45;;;;;;;5.85;2.83;;;;;;;;;;5034035;28;20098;-78
2023/08/17 00:54:12;;;;;;;8.93;3.05;;;;;;;;;;5034917;28;20080;-78
2023/08/17 00:56:40;;;;;;;7.07;2.75;;;;;;;;;;5034881;28;20123;-78
2023/08/17 00:59:06;;;;;;;7.43;2.83;;;;;;;;;;5035299;28;20072;-78
2023/08/17 01:01:32;;;;;;;5.60;2.80;;;;;;;;;;5034519;28;20044;-77
2023/08/17 01:03:58;;;;;;;8.38;2.88;;;;;;;;;;5051278;28;20051;-78
2023/08/17 01:06:24;;;;;;;6.05;2.70;;;;;;;;;;5014802;28;20489;-78
2023/08/17 01:08:50;;;;;;;8.07;2.72;;;;;;;;;;5015027;28;20124;-78
2023/08/17 01:11:25;;;;;;;6.32;2.80;;;;;;;;;;5014587;28;20055;-78
2023/08/17 01:13:55;;;;;;;8.07;3.00;;;;;;;;;;5021431;28;20068;-77
2023/08/17 01:16:30;;;;;;;6.35;2.92;;;;;;;;;;5033555;28;20071;-78
2023/08/17 01:18:58;;;;;;;5.85;2.78;;;;;;;;;;5034009;28;20045;-78
2023/08/17 01:21:25;;;;;;;7.40;2.80;;;;;;;;;;5032051;28;20053;-78
2023/08/17 01:23:51;;;;;;;6.10;2.83;;;;;;;;;;5034484;28;20048;-78
2023/08/17 01:26:17;;;;;;;6.40;3.00;;;;;;;;;;5034311;28;20048;-78
2023/08/17 01:28:44;;;;;;;6.43;3.00;;;;;;;;;;5034584;28;20099;-77
2023/08/17 01:31:36;;;;;;;6.80;2.80;;;;;;;;;;5051302;28;20052;-78
2023/08/17 01:34:08;;;;;;;7.05;2.60;;;;;;;;;;5048442;28;20092;-79
2023/08/17 01:36:38;;;;;;;6.13;2.90;;;;;;;;;;5051721;28;20129;-77
2023/08/17 01:39:05;;;;;;;6.82;3.00;;;;;;;;;;5051756;28;20489;-76
2023/08/17 01:41:32;;;;;;;7.25;2.85;;;;;;;;;;5051674;28;20049;-77
2023/08/17 01:43:59;;;;;;;7.22;2.97;;;;;;;;;;5051708;28;20037;-78
2023/08/17 01:46:25;;;;;;;6.68;3.42;;;;;;;;;;5032943;28;20053;-77
2023/08/17 01:48:51;;;;;;;9.70;3.00;;;;;;;;;;5032447;28;20056;-78
2023/08/17 01:51:21;;;;;;;8.65;3.13;;;;;;;;;;5016692;28;20135;-78
2023/08/17 01:53:48;;;;;;;9.13;3.10;;;;;;;;;;5017482;28;20084;-78
2023/08/17 01:56:14;;;;;;;8.02;3.08;;;;;;;;;;5016623;28;20048;-77
2023/08/17 01:58:40;;;;;;;8.23;2.90;;;;;;;;;;5033891;28;20153;-78
2023/08/17 02:01:06;;;;;;;6.35;2.92;;;;;;;;;;5051421;28;20401;-78
2023/08/17 02:03:32;;;;;;;5.85;2.90;;;;;;;;;;5037211;28;20041;-78
2023/08/17 02:05:59;;;;;;;8.40;3.50;;;;;;;;;;5055306;28;20049;-77
2023/08/17 02:08:25;;;;;;;7.57;3.05;;;;;;;;;;5037997;28;20102;-78
2023/08/17 02:10:52;;;;;;;7.13;3.35;;;;;;;;;;5054853;28;20060;-78
2023/08/17 02:13:18;;;;;;;9.10;2.78;;;;;;;;;;5021198;28;20053;-78
2023/08/17 02:15:44;;;;;;;7.50;3.05;;;;;;;;;;5020794;28;20048;-78
2023/08/17 02:18:10;;;;;;;8.88;3.10;;;;;;;;;;5055806;28;20137;-78
2023/08/17 02:20:36;;;;;;;8.23;3.00;;;;;;;;;;5055083;28;20129;-78
2023/08/17 02:23:03;;;;;;;6.40;2.70;;;;;;;;;;5055514;28;20044;-78
2023/08/17 02:25:35;;;;;;;7.53;2.90;;;;;;;;;;5055512;28;20103;-78
2023/08/17 02:28:01;;;;;;;8.18;3.08;;;;;;;;;;5037341;28;20055;-78
2023/08/17 02:30:28;;;;;;;6.63;2.47;;;;;;;;;;5037197;28;20098;-78
2023/08/17 02:32:55;;;;;;;8.13;2.88;;;;;;;;;;5055028;28;20052;-77
2023/08/17 02:35:21;;;;;;;6.03;2.80;;;;;;;;;;5037334;28;20041;-77
2023/08/17 02:37:47;;;;;;;5.47;2.63;;;;;;;;;;5036455;28;20181;-78
2023/08/17 02:40:13;;;;;;;6.25;2.30;;;;;;;;;;5054237;28;20504;-77
2023/08/17 02:42:39;;;;;;;5.65;2.53;;;;;;;;;;5054567;28;20128;-78
2023/08/17 02:45:06;;;;;;;7.95;2.90;;;;;;;;;;5054751;28;20049;-78
2023/08/17 02:47:32;;;;;;;9.10;2.70;;;;;;;;;;5054829;28;20052;-78
2023/08/17 02:49:58;;;;;;;7.22;2.53;;;;;;;;;;5036811;28;20068;-78
2023/08/17 02:52:24;;;;;;;6.68;2.53;;;;;;;;;;5036833;28;20386;-78
2023/08/17 02:54:51;;;;;;;8.25;2.22;;;;;;;;;;5036813;28;20041;-77
2023/08/17 02:57:18;;;;;;;6.45;2.60;;;;;;;;;;5054293;28;20044;-77
2023/08/17 02:59:44;;;;;;;5.25;2.47;;;;;;;;;;5053758;28;20575;-78
2023/08/17 03:02:10;;;;;;;6.95;2.70;;;;;;;;;;5036555;28;20045;-78
2023/08/17 03:04:36;;;;;;;9.73;2.67;;;;;;;;;;5047596;28;20087;-78
2023/08/17 03:07:02;;;;;;;6.50;2.53;;;;;;;;;;5017023;28;20103;-78
2023/08/17 03:09:28;;;;;;;7.03;2.60;;;;;;;;;;5017712;28;20115;-78
2023/08/17 03:11:54;;;;;;;6.85;2.33;;;;;;;;;;5053895;28;20041;-78
2023/08/17 03:14:20;;;;;;;6.90;2.33;;;;;;;;;;5034496;28;20413;-78
2023/08/17 03:16:46;;;;;;;5.57;2.35;;;;;;;;;;5053243;28;20041;-78
2023/08/17 03:19:13;;;;;;;9.20;2.67;;;;;;;;;;5054581;28;20110;-78
2023/08/17 03:21:39;;;;;;;5.07;2.35;;;;;;;;;;5017620;28;20504;-78
2023/08/17 03:24:05;;;;;;;7.70;2.40;;;;;;;;;;5019739;28;20056;-77
2023/08/17 03:26:32;;;;;;;8.40;2.50;;;;;;;;;;5054243;28;20048;-77
2023/08/17 03:28:58;;;;;;;8.93;2.60;;;;;;;;;;5036577;28;20399;-77
2023/08/17 03:31:24;;;;;;;6.07;2.50;;;;;;;;;;5054046;28;20045;-78
2023/08/17 03:33:50;;;;;;;5.70;2.33;;;;;;;;;;5035968;28;20170;-78
2023/08/17 03:36:16;;;;;;;6.53;2.55;;;;;;;;;;5053607;28;20186;-78
2023/08/17 03:38:42;;;;;;;8.20;2.53;;;;;;;;;;5036725;28;20041;-78
2023/08/17 03:41:09;;;;;;;5.57;2.40;;;;;;;;;;5053621;28;20516;-78
2023/08/17 03:43:35;;;;;;;6.05;2.50;;;;;;;;;;5036535;28;20397;-78
2023/08/17 03:46:02;;;;;;;7.70;2.50;;;;;;;;;;5034882;28;20533;-77
2023/08/17 03:48:28;;;;;;;5.40;2.28;;;;;;;;;;5036104;28;20453;-78
2023/08/17 03:50:57;;;;;;;5.82;2.30;;;;;;;;;;5053122;28;20501;-77
2023/08/17 03:53:23;;;;;;;7.35;2.70;;;;;;;;;;5053544;28;20048;-78
2023/08/17 03:55:50;;;;;;;6.10;2.50;;;;;;;;;;5033539;28;20412;-78
2023/08/17 03:58:16;;;;;;;5.53;2.45;;;;;;;;;;5017315;28;20037;-78
2023/08/17 04:00:44;;;;;;;8.40;2.97;;;;;;;;;;5018709;28;20068;-77
2023/08/17 04:03:10;;;;;;;5.75;2.60;;;;;;;;;;5052989;28;20060;-78
2023/08/17 04:05:36;;;;;;;8.07;2.60;;;;;;;;;;5035439;28;20092;-78
2023/08/17 04:08:02;;;;;;;7.00;2.40;;;;;;;;;;5034633;28;20118;-78
2023/08/17 04:10:29;;;;;;;5.85;2.40;;;;;;;;;;5035078;28;20375;-78
2023/08/17 04:12:56;;;;;;;8.30;2.70;;;;;;;;;;5053360;28;20123;-78
2023/08/17 04:15:22;;;;;;;5.25;2.55;;;;;;;;;;5034807;28;20040;-78
2023/08/17 04:17:48;;;;;;;6.20;2.70;;;;;;;;;;5018512;28;20052;-78
2023/08/17 04:20:14;;;;;;;10.05;3.03;;;;;;;;;;5053482;28;20045;-78
2023/08/17 04:22:40;;;;;;;8.43;2.95;;;;;;;;;;5052870;28;20139;-78
2023/08/17 04:25:07;;;;;;;8.65;3.03;;;;;;;;;;5052993;28;20045;-78
2023/08/17 04:27:33;;;;;;;8.20;2.90;;;;;;;;;;5052598;28;20049;-78
2023/08/17 04:29:59;;;;;;;7.72;2.90;;;;;;;;;;5035500;28;20124;-78
2023/08/17 04:32:25;;;;;;;6.80;3.08;;;;;;;;;;5034936;28;20052;-78
2023/08/17 04:34:51;;;;;;;7.45;2.88;;;;;;;;;;5034963;28;20060;-78
2023/08/17 04:37:17;;;;;;;7.32;2.63;;;;;;;;;;5034837;28;20363;-78
2023/08/17 04:39:43;;;;;;;8.27;2.65;;;;;;;;;;5053372;28;20041;-78
2023/08/17 04:42:09;;;;;;;6.38;2.60;;;;;;;;;;5046782;28;20037;-78
2023/08/17 04:44:35;;;;;;;7.57;2.65;;;;;;;;;;5033181;28;20092;-77
2023/08/17 04:47:02;;;;;;;8.68;2.78;;;;;;;;;;5025472;28;20049;-78
2023/08/17 04:49:28;;;;;;;6.07;2.78;;;;;;;;;;5053052;28;20406;-77
2023/08/17 04:51:54;;;;;;;9.18;2.65;;;;;;;;;;5052863;28;20072;-77
2023/08/17 04:54:20;;;;;;;6.47;2.63;;;;;;;;;;5052737;28;20037;-77
2023/08/17 04:56:46;;;;;;;5.70;2.42;;;;;;;;;;5035136;28;20048;-78
2023/08/17 04:59:12;;;;;;;5.72;2.72;;;;;;;;;;5034839;28;20041;-77
2023/08/17 05:01:38;;;;;;;6.50;2.60;;;;;;;;;;5052466;28;20105;-77
2023/08/17 05:04:05;;;;;;;5.63;2.47;;;;;;;;;;5052355;28;20041;-77
2023/08/17 05:06:31;;;;;;;7.90;2.88;;;;;;;;;;5052228;28;20048;-78
2023/08/17 05:08:57;;;;;;;5.55;2.63;;;;;;;;;;5034760;28;20045;-78
2023/08/17 05:11:23;;;;;;;8.02;2.45;;;;;;;;;;5052143;28;20055;-77
2023/08/17 05:13:49;;;;;;;6.72;2.60;;;;;;;;;;5051666;28;20099;-77
2023/08/17 05:16:15;;;;;;;7.32;2.70;;;;;;;;;;5051606;28;20095;-77
2023/08/17 05:18:42;;;;;;;4.70;2.33;;;;;;;;;;5033776;28;20111;-77
2023/08/17 05:21:08;;;;;;;6.50;2.50;;;;;;;;;;5051847;28;20053;-77
2023/08/17 05:23:34;;;;;;;7.15;2.50;;;;;;;;;;5052613;28;20045;-78
2023/08/17 05:26:00;;;;;;;8.70;2.58;;;;;;;;;;5017175;28;20440;-77
2023/08/17 05:28:26;;;;;;;7.60;2.67;;;;;;;;;;5033934;28;20071;-78
2023/08/17 05:30:53;;;;;;;5.63;2.47;;;;;;;;;;5051163;28;20041;-78
2023/08/17 05:33:19;;;;;;;6.35;2.70;;;;;;;;;;5034337;28;20417;-78
2023/08/17 05:35:45;;;;;;;7.25;2.67;;;;;;;;;;5033735;28;20477;-78
2023/08/17 05:38:11;;;;;;;10.05;2.78;;;;;;;;;;5051823;28;20064;-78
2023/08/17 05:40:37;;;;;;;7.57;2.38;;;;;;;;;;5033792;28;20108;-78
2023/08/17 05:43:04;;;;;;;7.80;2.50;;;;;;;;;;5017161;28;20056;-77
2023/08/17 05:45:30;;;;;;;6.32;2.47;;;;;;;;;;5039731;28;20129;-78
2023/08/17 05:47:56;;;;;;;6.50;2.75;;;;;;;;;;5033702;28;20373;-78
2023/08/17 05:50:25;;;;;;;7.68;2.78;;;;;;;;;;5051132;28;20094;-77
2023/08/17 05:52:51;;;;;;;5.43;2.50;;;;;;;;;;5033376;28;20151;-78
2023/08/17 05:55:17;;;;;;;6.97;2.50;;;;;;;;;;5033644;28;20076;-78
2023/08/17 05:57:43;;;;;;;5.47;2.53;;;;;;;;;;5031136;28;20041;-78
2023/08/17 06:00:12;;;;;;;8.15;2.80;;;;;;;;;;5051768;28;20098;-78
2023/08/17 06:02:39;;;;;;;6.15;2.72;;;;;;;;;;5051256;28;20424;-76
2023/08/17 06:05:05;;;;;;;9.48;2.60;;;;;;;;;;5041007;28;20045;-77
2023/08/17 06:07:31;;;;;;;5.72;2.58;;;;;;;;;;5014890;28;20103;-77
2023/08/17 06:09:57;;;;;;;5.85;2.40;;;;;;;;;;5029391;28;20049;-77
2023/08/17 06:12:23;;;;;;;8.45;2.60;;;;;;;;;;5051273;28;20052;-77
2023/08/17 06:14:49;;;;;;;6.60;2.35;;;;;;;;;;5051246;28;20121;-78
2023/08/17 06:17:15;;;;;;;7.32;2.58;;;;;;;;;;5051271;28;20140;-80
2023/08/17 06:19:41;;;;;;;5.00;2.40;;;;;;;;;;5052655;28;20130;-80
2023/08/17 06:22:07;;;;;;;6.25;2.60;;;;;;;;;;5051466;28;20095;-80
2023/08/17 06:24:34;;;;;;;5.65;2.50;;;;;;;;;;5018756;28;20044;-81
2023/08/17 06:27:00;;;;;;;8.63;2.90;;;;;;;;;;5052023;28;20041;-81
2023/08/17 06:29:26;;;;;;;6.72;2.50;;;;;;;;;;5052355;28;20124;-81
2023/08/17 06:31:52;;;;;;;6.20;2.40;;;;;;;;;;5051543;28;20049;-80
2023/08/17 06:34:18;;;;;;;6.70;2.15;;;;;;;;;;5051164;28;20041;-80
2023/08/17 06:36:56;;;;;;;5.32;2.58;;;;;;;;;;5051661;28;20139;-81
2023/08/17 06:39:22;;;;;;;9.00;2.60;;;;;;;;;;5051680;28;20037;-81
2023/08/17 06:41:48;;;;;;;5.97;2.10;;;;;;;;;;5051663;28;20052;-81
2023/08/17 06:44:14;;;;;;;8.10;2.42;;;;;;;;;;5033730;28;20124;-81
2023/08/17 06:46:40;;;;;;;6.30;1.98;;;;;;;;;;5017306;28;20049;-81
2023/08/17 06:49:08;;;;;;;8.27;2.40;;;;;;;;;;5018602;28;20409;-81
2023/08/17 06:51:34;;;;;;;11.45;2.30;;;;;;;;;;5054973;28;20053;-81
2023/08/17 06:54:00;;;;;;;5.68;2.22;;;;;;;;;;5054873;28;20044;-81
2023/08/17 06:56:26;;;;;;;8.07;2.05;;;;;;;;;;5054827;28;20037;-81
2023/08/17 06:58:52;;;;;;;5.57;2.10;;;;;;;;;;5037708;28;20048;-81
2023/08/17 07:01:18;;;;;;;5.43;2.08;;;;;;;;;;5037054;28;20045;-81
2023/08/17 07:03:44;;;;;;;7.45;2.20;;;;;;;;;;5055575;28;20349;-81
2023/08/17 07:06:10;;;;;;;6.60;2.13;;;;;;;;;;5055061;28;20041;-82
2023/08/17 07:08:36;;;;;;;5.63;1.85;;;;;;;;;;5055305;28;20048;-81
2023/08/17 07:11:05;;;;;;;5.88;2.08;;;;;;;;;;5038142;28;20059;-81
2023/08/17 07:13:31;;;;;;;4.88;1.58;;;;;;;;;;5053152;28;20099;-81
2023/08/17 07:15:57;;;;;;;5.75;1.98;;;;;;;;;;5036291;28;20139;-81
2023/08/17 07:18:24;;;;;;;4.38;2.00;;;;;;;;;;5054476;28;20064;-81
2023/08/17 07:20:50;;;;;;;4.82;2.00;;;;;;;;;;5036006;28;20052;-81
2023/08/17 07:23:16;;;;;;;6.22;2.10;;;;;;;;;;5019925;28;20125;-81
2023/08/17 07:25:42;;;;;;;6.90;2.00;;;;;;;;;;5036584;28;20041;-81
2023/08/17 07:28:08;;;;;;;7.45;2.22;;;;;;;;;;5054344;28;20045;-81
2023/08/17 07:30:34;;;;;;;6.22;1.63;;;;;;;;;;5053388;28;20051;-81
2023/08/17 07:33:00;;;;;;;3.63;1.90;;;;;;;;;;5052897;28;20535;-81
2023/08/17 07:35:26;;;;;;;4.60;1.98;;;;;;;;;;5019840;28;20053;-81
2023/08/17 07:37:52;;;;;;;5.28;1.80;;;;;;;;;;5054318;28;20040;-81
2023/08/17 07:40:18;;;;;;;7.32;1.85;;;;;;;;;;5053490;28;20136;-81
2023/08/17 07:42:46;;;;;;;5.88;1.60;;;;;;;;;;5036124;28;20055;-81
2023/08/17 07:45:13;;;;;;;3.63;1.60;;;;;;;;;;5036325;28;20442;-82
2023/08/17 07:47:39;;;;;;;5.45;1.88;;;;;;;;;;5053799;28;20044;-82
2023/08/17 07:50:05;;;;;;;9.05;1.80;;;;;;;;;;5035758;28;20063;-81
2023/08/17 07:52:31;;;;;;;3.38;1.63;;;;;;;;;;5054174;28;20132;-80
2023/08/17 07:54:57;;;;;;;6.57;2.00;;;;;;;;;;5036086;28;20401;-80
2023/08/17 07:57:23;;;;;;;5.72;1.80;;;;;;;;;;5053788;28;20043;-80
2023/08/17 08:02:18;;;;;;;5.10;1.50;;;;;;;;;;4995705;22;20148;-83
2023/08/17 08:04:44;;;;;;;4.07;1.60;;;;;;;;;;5007648;28;20122;-80
2023/08/17 08:07:11;;;;;;;6.22;1.55;;;;;;;;;;5041834;28;20044;-81
2023/08/17 08:09:37;;;;;;;2.97;1.50;;;;;;;;;;5010536;28;20120;-80
2023/08/17 08:12:03;;;;;;;5.32;1.83;;;;;;;;;;5028589;28;20096;-80
2023/08/17 08:14:29;;;;;;;7.75;1.52;;;;;;;;;;5012124;28;20405;-81
2023/08/17 08:16:55;;;;;;;5.57;1.55;;;;;;;;;;5027424;28;20544;-81
2023/08/17 08:19:21;;;;;;;4.22;1.63;;;;;;;;;;5010312;28;20608;-81
2023/08/17 08:21:47;;;;;;;5.40;1.77;;;;;;;;;;5028424;28;20056;-81
2023/08/17 08:24:13;;;;;;;4.85;1.50;;;;;;;;;;5028686;28;20057;-79
2023/08/17 08:26:39;;;;;;;5.70;1.60;;;;;;;;;;5028545;28;20041;-80
2023/08/17 08:29:05;;;;;;;4.65;1.48;;;;;;;;;;5010410;28;20052;-79
2023/08/17 08:31:31;;;;;;;4.28;1.58;;;;;;;;;;4994163;28;20042;-81
2023/08/17 08:33:59;;;;;;;8.63;1.70;;;;;;;;;;5028738;28;20068;-80
2023/08/17 08:36:25;;;;;;;5.22;1.58;;;;;;;;;;5028585;28;20452;-79
2023/08/17 08:38:51;;;;;;;6.97;1.70;;;;;;;;;;5028144;28;20553;-80
2023/08/17 08:41:17;;;;;;;5.63;1.50;;;;;;;;;;5010522;28;20045;-82
2023/08/17 08:43:44;;;;;;;5.18;1.55;;;;;;;;;;5027588;28;20054;-81
2023/08/17 08:46:11;;;;;;;5.43;1.73;;;;;;;;;;5028473;28;20199;-81
2023/08/17 08:48:38;;;;;;;4.45;1.60;;;;;;;;;;5028461;28;20087;-82
2023/08/17 08:51:08;;;;;;;4.32;1.63;;;;;;;;;;5028802;28;20041;-80
2023/08/17 08:53:45;;;;;;;10.00;1.50;;;;;;;;;;5027944;28;20045;-80
2023/08/17 08:56:12;;;;;;;4.57;1.58;;;;;;;;;;5028731;28;20053;-80
2023/08/17 08:58:39;;;;;;;5.22;1.50;;;;;;;;;;5027243;28;20489;-80
2023/08/17 09:01:05;;;;;;;6.15;1.58;;;;;;;;;;5011097;28;20045;-80
2023/08/17 09:03:33;;;;;;;4.25;1.60;;;;;;;;;;4993902;28;20394;-80
2023/08/17 09:05:59;;;;;;;4.53;1.50;;;;;;;;;;5027630;28;20394;-77
2023/08/17 09:08:29;;;;;;;6.05;1.75;;;;;;;;;;5010192;28;20046;-78
2023/08/17 09:10:55;;;;;;;5.95;1.48;;;;;;;;;;5026832;28;20044;-77
2023/08/17 09:13:22;;;;;;;3.95;1.63;;;;;;;;;;5007879;28;20132;-77
2023/08/17 09:15:48;;;;;;;6.13;1.70;;;;;;;;;;5009768;28;20420;-77
2023/08/17 09:18:14;;;;;;;6.18;1.75;;;;;;;;;;5027520;28;20046;-78
2023/08/17 09:20:45;;;;;;;6.05;1.60;;;;;;;;;;4993335;28;20136;-79
2023/08/17 09:23:15;;;;;;;4.45;1.63;;;;;;;;;;5009611;28;20052;-79
2023/08/17 09:25:42;;;;;;;3.75;1.60;;;;;;;;;;5029713;28;20099;-78
2023/08/17 09:28:09;;;;;;;4.32;1.50;;;;;;;;;;5026816;28;20041;-78
2023/08/17 09:30:55;;;;;;;4.20;1.45;;;;;;;;;;4993763;28;20045;-78
2023/08/17 09:33:22;;;;;;;5.18;1.75;;;;;;;;;;5027186;28;20425;-78
2023/08/17 09:35:49;;;;;;;5.97;1.55;;;;;;;;;;5027599;28;20448;-78
2023/08/17 09:38:16;;;;;;;5.43;1.30;;;;;;;;;;5027332;28;20497;-77
2023/08/17 09:40:42;;;;;;;4.13;1.40;;;;;;;;;;5027126;28;20100;-78
2023/08/17 09:43:09;;;;;;;6.38;1.58;;;;;;;;;;5026695;28;20042;-78
2023/08/17 09:45:36;;;;;;;3.53;1.40;;;;;;;;;;5009315;28;20045;-77
2023/08/17 09:48:02;;;;;;;5.45;1.40;;;;;;;;;;5009568;28;20484;-78
2023/08/17 09:50:28;;;;;;;4.05;1.40;;;;;;;;;;5027521;28;20077;-78
2023/08/17 09:52:54;;;;;;;3.90;1.50;;;;;;;;;;4992792;28;20053;-78
2023/08/17 09:55:24;;;;;;;3.60;1.30;;;;;;;;;;5008882;28;20053;-78
2023/08/17 09:57:51;;;;;;;4.30;1.50;;;;;;;;;;5008643;28;20099;-78
2023/08/17 10:00:17;;;;;;;5.28;1.65;;;;;;;;;;5009897;28;20421;-78
2023/08/17 10:02:45;;;;;;;3.83;1.50;;;;;;;;;;4988791;28;20557;-78
2023/08/17 10:05:12;;;;;;;3.83;1.17;;;;;;;;;;5026134;28;20111;-78
2023/08/17 10:07:41;;;;;;;5.90;1.48;;;;;;;;;;5026758;28;20076;-78
2023/08/17 10:10:07;;;;;;;3.08;1.20;;;;;;;;;;5009458;28;20443;-78
2023/08/17 10:12:37;;;;;;;4.15;1.42;;;;;;;;;;5025306;28;20132;-78
2023/08/17 10:15:04;;;;;;;3.65;1.30;;;;;;;;;;5010642;28;20516;-78
2023/08/17 10:17:35;;;;;;;3.67;1.23;;;;;;;;;;5005964;28;20469;-80
2023/08/17 10:20:02;;;;;;;6.03;1.60;;;;;;;;;;5006797;28;20041;-78
2023/08/17 10:22:32;;;;;;;6.18;1.40;;;;;;;;;;5005421;28;20069;-78
2023/08/17 10:24:59;;;;;;;6.35;1.60;;;;;;;;;;5011210;28;20042;-78
2023/08/17 10:27:26;;;;;;;3.72;1.40;;;;;;;;;;4993608;28;20065;-78
2023/08/17 10:29:52;;;;;;;4.65;1.42;;;;;;;;;;5011985;28;20133;-78
2023/08/17 10:32:19;;;;;;;4.95;1.75;;;;;;;;;;4995204;28;20117;-79
2023/08/17 10:34:45;;;;;;;4.65;1.58;;;;;;;;;;5009165;28;20042;-79
2023/08/17 10:37:12;;;;;;;5.30;1.50;;;;;;;;;;4976859;28;20052;-79
2023/08/17 10:39:45;;;;;;;7.78;1.55;;;;;;;;;;5010954;28;20157;-77
2023/08/17 10:42:11;;;;;;;5.25;1.60;;;;;;;;;;4975849;28;20568;-78
2023/08/17 10:44:41;;;;;;;7.03;1.95;;;;;;;;;;5009722;28;20442;-78
2023/08/17 10:47:20;;;;;;;6.38;1.50;;;;;;;;;;5010956;28;20157;-79
2023/08/17 10:49:46;;;;;;;5.45;1.70;;;;;;;;;;5010867;28;20077;-79
2023/08/17 10:52:12;;;;;;;4.15;1.70;;;;;;;;;;5011578;28;20085;-78
2023/08/17 10:54:39;;;;;;;5.60;1.70;;;;;;;;;;5008967;28;20056;-79
2023/08/17 10:57:25;;;;;;;5.82;1.50;;;;;;;;;;5009722;28;20038;-78
2023/08/17 11:00:10;;;;;;;3.88;1.42;;;;;;;;;;5009466;28;20054;-78
2023/08/17 11:02:37;;;;;;;6.20;1.70;;;;;;;;;;4991618;28;20494;-78
2023/08/17 11:05:04;;;;;;;8.13;2.17;;;;;;;;;;5016100;28;20403;-78
2023/08/17 11:07:43;;;;;;;5.70;1.58;;;;;;;;;;4992038;28;20130;-77
2023/08/17 11:10:13;;;;;;;4.90;1.60;;;;;;;;;;4992874;28;20050;-78
2023/08/17 11:12:41;;;;;;;4.20;1.60;;;;;;;;;;5008465;28;20462;-79
2023/08/17 11:15:07;;;;;;;5.50;1.75;;;;;;;;;;5024587;28;20045;-77
2023/08/17 11:17:33;;;;;;;5.03;1.52;;;;;;;;;;5014174;28;20072;-78
2023/08/17 11:19:59;;;;;;;6.40;1.80;;;;;;;;;;5030736;28;20049;-77
2023/08/17 11:22:26;;;;;;;5.05;1.75;;;;;;;;;;5011472;28;20057;-78
2023/08/17 11:24:52;;;;;;;3.92;1.60;;;;;;;;;;5012249;28;20077;-79
2023/08/17 11:27:19;;;;;;;5.10;1.63;;;;;;;;;;5009750;28;20497;-78
2023/08/17 11:29:45;;;;;;;5.47;1.70;;;;;;;;;;5012607;28;20119;-78
2023/08/17 11:32:12;;;;;;;3.75;1.70;;;;;;;;;;5012121;28;20049;-79
2023/08/17 11:34:38;;;;;;;4.45;1.90;;;;;;;;;;5027862;28;20120;-79
2023/08/17 11:37:07;;;;;;;4.50;1.60;;;;;;;;;;5029405;28;20045;-79
2023/08/17 11:39:36;;;;;;;4.35;1.67;;;;;;;;;;5029179;28;20046;-78
2023/08/17 11:42:02;;;;;;;4.28;1.70;;;;;;;;;;5009928;28;20053;-78
2023/08/17 11:44:29;;;;;;;4.38;1.80;;;;;;;;;;4995044;28;20049;-78
2023/08/17 11:46:55;;;;;;;5.78;1.80;;;;;;;;;;5029683;28;20049;-79
2023/08/17 11:49:23;;;;;;;4.75;1.80;;;;;;;;;;5010914;28;20124;-77
2023/08/17 11:51:49;;;;;;;4.10;1.83;;;;;;;;;;5011218;28;20143;-78
2023/08/17 11:54:16;;;;;;;4.75;1.65;;;;;;;;;;5011783;28;20399;-78
2023/08/17 11:56:42;;;;;;;4.95;1.80;;;;;;;;;;5012554;28;20041;-78
2023/08/17 11:59:13;;;;;;;5.63;1.80;;;;;;;;;;5013202;28;20145;-78
2023/08/17 12:01:39;;;;;;;5.47;1.70;;;;;;;;;;5010646;28;20054;-77
2023/08/17 12:04:06;;;;;;;4.45;1.75;;;;;;;;;;5009169;28;20156;-77
2023/08/17 12:06:32;;;;;;;5.55;1.90;;;;;;;;;;4990922;28;20204;-78
2023/08/17 12:08:58;;;;;;;4.18;1.60;;;;;;;;;;4991142;28;20042;-78
2023/08/17 12:11:25;;;;;;;6.88;2.08;;;;;;;;;;5024516;28;20496;-78
2023/08/17 12:13:52;;;;;;;6.32;1.67;;;;;;;;;;5027634;28;20074;-78
2023/08/17 12:16:18;;;;;;;6.25;1.80;;;;;;;;;;5028506;28;20176;-78
2023/08/17 12:18:51;;;;;;;5.82;1.70;;;;;;;;;;5010595;28;20052;-78
2023/08/17 12:21:17;;;;;;;4.25;1.92;;;;;;;;;;5011129;28;20046;-77
2023/08/17 12:23:43;;;;;;;6.55;1.83;;;;;;;;;;5029497;28;20061;-78
2023/08/17 12:26:09;;;;;;;5.18;1.73;;;;;;;;;;4996929;28;20087;-78
2023/08/17 12:28:35;;;;;;;5.28;1.60;;;;;;;;;;5029094;28;20052;-78
2023/08/17 12:31:02;;;;;;;4.45;1.90;;;;;;;;;;5028300;28;20049;-77
2023/08/17 12:33:28;;;;;;;9.35;2.00;;;;;;;;;;5011155;28;20060;-77
2023/08/17 12:35:54;;;;;;;5.80;2.08;;;;;;;;;;5029191;28;20470;-78
2023/08/17 12:38:21;;;;;;;4.93;1.80;;;;;;;;;;5027576;28;20121;-78
2023/08/17 12:40:47;;;;;;;3.70;1.85;;;;;;;;;;5010424;28;20393;-77
2023/08/17 12:43:13;;;;;;;5.15;1.92;;;;;;;;;;5015245;28;20042;-77
2023/08/17 12:45:39;;;;;;;6.97;2.25;;;;;;;;;;5015362;28;20432;-77
2023/08/17 12:48:05;;;;;;;6.05;2.10;;;;;;;;;;5032800;28;20045;-78
2023/08/17 12:50:31;;;;;;;8.10;2.15;;;;;;;;;;5015137;28;20048;-78
2023/08/17 12:52:57;;;;;;;7.22;2.30;;;;;;;;;;5032712;28;20497;-78
2023/08/17 12:55:23;;;;;;;5.97;1.92;;;;;;;;;;5015189;28;20056;-78
2023/08/17 12:57:49;;;;;;;6.22;2.10;;;;;;;;;;5032531;28;20498;-78
2023/08/17 13:00:16;;;;;;;5.60;2.25;;;;;;;;;;5013549;28;20045;-76
2023/08/17 13:02:42;;;;;;;5.40;1.90;;;;;;;;;;5014557;28;20057;-77
2023/08/17 13:05:08;;;;;;;5.95;2.20;;;;;;;;;;5011680;28;20413;-77
2023/08/17 13:07:34;;;;;;;6.85;2.20;;;;;;;;;;4978862;28;20053;-78
2023/08/17 13:10:00;;;;;;;4.43;1.80;;;;;;;;;;5012871;28;20137;-79
2023/08/17 13:12:26;;;;;;;5.97;1.90;;;;;;;;;;4995102;28;20202;-79
2023/08/17 13:14:52;;;;;;;4.03;1.80;;;;;;;;;;4995475;28;20132;-79
2023/08/17 13:17:18;;;;;;;6.10;1.80;;;;;;;;;;5012830;28;20112;-78
2023/08/17 13:19:44;;;;;;;5.25;2.17;;;;;;;;;;5013036;28;20056;-79
2023/08/17 13:22:10;;;;;;;5.38;1.95;;;;;;;;;;4994863;28;20137;-79
2023/08/17 13:24:36;;;;;;;5.45;1.92;;;;;;;;;;4994936;28;20041;-78
2023/08/17 13:27:02;;;;;;;9.73;2.25;;;;;;;;;;4994750;28;20076;-77
2023/08/17 13:29:28;;;;;;;5.75;2.20;;;;;;;;;;5012584;28;20482;-77
2023/08/17 13:31:54;;;;;;;7.25;2.10;;;;;;;;;;4994734;28;20042;-77
2023/08/17 13:34:21;;;;;;;7.50;2.47;;;;;;;;;;4994656;28;20042;-77
2023/08/17 13:36:47;;;;;;;5.47;2.00;;;;;;;;;;4994986;28;20104;-77
2023/08/17 13:39:13;;;;;;;5.18;2.13;;;;;;;;;;5012834;28;20517;-77
2023/08/17 13:41:40;;;;;;;6.68;2.00;;;;;;;;;;4994515;28;20535;-77
2023/08/17 13:44:06;;;;;;;6.78;2.28;;;;;;;;;;5012297;28;20398;-78
2023/08/17 13:46:32;;;;;;;4.75;2.10;;;;;;;;;;5012738;28;20089;-77
2023/08/17 13:48:59;;;;;;;8.18;2.10;;;;;;;;;;4994879;28;20387;-78
2023/08/17 13:51:25;;;;;;;5.00;1.95;;;;;;;;;;5011515;28;20041;-78
2023/08/17 13:53:51;;;;;;;4.97;2.30;;;;;;;;;;4993792;28;20046;-78
2023/08/17 13:56:17;;;;;;;6.32;1.90;;;;;;;;;;5012354;28;20458;-78
2023/08/17 13:58:43;;;;;;;4.93;2.30;;;;;;;;;;5005275;28;20132;-82
2023/08/17 14:01:11;;;;;;;8.18;2.30;;;;;;;;;;5036083;28;20537;-82
2023/08/17 14:03:37;;;;;;;5.50;2.10;;;;;;;;;;5017486;28;20094;-81
2023/08/17 14:06:03;;;;;;;6.50;2.53;;;;;;;;;;5015934;28;20054;-81
2023/08/17 14:08:29;;;;;;;7.47;2.83;;;;;;;;;;5014378;28;20049;-81
2023/08/17 14:10:55;;;;;;;5.93;2.30;;;;;;;;;;5015998;28;20049;-81
2023/08/17 14:13:21;;;;;;;5.80;2.30;;;;;;;;;;5015020;28;20042;-82
2023/08/17 14:15:47;;;;;;;7.07;2.20;;;;;;;;;;5016694;28;20046;-83
2023/08/17 14:18:13;;;;;;;6.88;2.47;;;;;;;;;;4998932;28;20045;-82
2023/08/17 14:20:39;;;;;;;7.40;2.33;;;;;;;;;;4998904;28;20129;-81
2023/08/17 14:23:05;;;;;;;6.95;2.50;;;;;;;;;;5015287;28;20073;-81
2023/08/17 14:25:31;;;;;;;4.82;2.40;;;;;;;;;;5005228;28;20092;-81
2023/08/17 14:27:59;;;;;;;6.10;2.58;;;;;;;;;;4998272;28;20049;-82
2023/08/17 14:30:26;;;;;;;7.05;2.63;;;;;;;;;;4998755;28;20050;-83
2023/08/17 14:32:52;;;;;;;8.10;2.45;;;;;;;;;;4998521;28;20061;-82
2023/08/17 14:35:18;;;;;;;6.18;2.40;;;;;;;;;;5016514;28;20509;-83
2023/08/17 14:37:44;;;;;;;10.68;3.17;;;;;;;;;;5015891;28;20054;-83
2023/08/17 14:40:10;;;;;;;6.55;2.35;;;;;;;;;;4996005;28;20041;-81
2023/08/17 14:42:38;;;;;;;6.60;2.38;;;;;;;;;;5012479;28;20045;-82